sensor_id;sensor_type;location;lat;lon;timestamp;P1;durP1;ratioP1;P2;durP2;ratioP2
7773;SDS011;3931;42.260;23.116;2023-11-19T00:00:36;9.23;;;3.57;;
7773;SDS011;3931;42.260;23.116;2023-11-19T00:03:02;4.10;;;2.33;;
7773;SDS011;3931;42.260;23.116;2023-11-19T00:05:29;4.30;;;2.27;;
7773;SDS011;3931;42.260;23.116;2023-11-19T00:07:55;3.03;;;2.00;;
7773;SDS011;3931;42.260;23.116;2023-11-19T00:10:21;7.60;;;3.23;;
7773;SDS011;3931;42.260;23.116;2023-11-19T00:12:48;5.50;;;2.87;;
7773;SDS011;3931;42.260;23.116;2023-11-19T00:15:15;5.00;;;2.20;;
7773;SDS011;3931;42.260;23.116;2023-11-19T00:17:44;3.27;;;2.10;;
7773;SDS011;3931;42.260;23.116;2023-11-19T00:20:10;2.73;;;1.90;;
7773;SDS011;3931;42.260;23.116;2023-11-19T00:22:37;2.87;;;2.23;;
7773;SDS011;3931;42.260;23.116;2023-11-19T00:25:04;2.93;;;2.23;;
7773;SDS011;3931;42.260;23.116;2023-11-19T00:27:31;3.87;;;2.27;;
7773;SDS011;3931;42.260;23.116;2023-11-19T00:29:57;2.13;;;1.93;;
7773;SDS011;3931;42.260;23.116;2023-11-19T00:32:24;5.97;;;2.50;;
7773;SDS011;3931;42.260;23.116;2023-11-19T00:34:50;3.40;;;2.20;;
7773;SDS011;3931;42.260;23.116;2023-11-19T00:37:16;2.90;;;1.93;;
7773;SDS011;3931;42.260;23.116;2023-11-19T00:39:42;3.73;;;2.40;;
7773;SDS011;3931;42.260;23.116;2023-11-19T00:42:09;3.80;;;2.33;;
7773;SDS011;3931;42.260;23.116;2023-11-19T00:44:35;1.77;;;1.43;;
7773;SDS011;3931;42.260;23.116;2023-11-19T00:47:02;2.73;;;1.77;;
7773;SDS011;3931;42.260;23.116;2023-11-19T00:49:30;3.67;;;2.03;;
7773;SDS011;3931;42.260;23.116;2023-11-19T00:51:57;3.70;;;1.90;;
7773;SDS011;3931;42.260;23.116;2023-11-19T00:54:24;4.53;;;2.20;;
7773;SDS011;3931;42.260;23.116;2023-11-19T00:56:51;3.20;;;1.80;;
7773;SDS011;3931;42.260;23.116;2023-11-19T00:59:17;5.43;;;2.30;;
7773;SDS011;3931;42.260;23.116;2023-11-19T01:01:43;2.67;;;2.10;;
7773;SDS011;3931;42.260;23.116;2023-11-19T01:04:10;2.77;;;2.30;;
7773;SDS011;3931;42.260;23.116;2023-11-19T01:06:36;3.20;;;2.27;;
7773;SDS011;3931;42.260;23.116;2023-11-19T01:09:02;3.07;;;2.47;;
7773;SDS011;3931;42.260;23.116;2023-11-19T01:11:28;4.80;;;3.00;;
7773;SDS011;3931;42.260;23.116;2023-11-19T01:13:54;4.07;;;2.43;;
7773;SDS011;3931;42.260;23.116;2023-11-19T01:16:20;2.50;;;1.93;;
7773;SDS011;3931;42.260;23.116;2023-11-19T01:18:47;2.90;;;2.10;;
7773;SDS011;3931;42.260;23.116;2023-11-19T01:21:14;2.70;;;1.70;;
7773;SDS011;3931;42.260;23.116;2023-11-19T01:23:40;6.50;;;3.20;;
7773;SDS011;3931;42.260;23.116;2023-11-19T01:26:08;2.33;;;1.93;;
7773;SDS011;3931;42.260;23.116;2023-11-19T01:28:35;2.90;;;2.17;;
7773;SDS011;3931;42.260;23.116;2023-11-19T01:31:01;2.13;;;1.73;;
7773;SDS011;3931;42.260;23.116;2023-11-19T01:33:28;3.77;;;2.13;;
7773;SDS011;3931;42.260;23.116;2023-11-19T01:35:55;4.47;;;2.10;;
7773;SDS011;3931;42.260;23.116;2023-11-19T01:38:24;3.27;;;2.50;;
7773;SDS011;3931;42.260;23.116;2023-11-19T01:40:50;2.50;;;2.17;;
7773;SDS011;3931;42.260;23.116;2023-11-19T01:43:33;2.93;;;2.30;;
7773;SDS011;3931;42.260;23.116;2023-11-19T01:46:00;2.30;;;1.90;;
7773;SDS011;3931;42.260;23.116;2023-11-19T01:48:26;5.67;;;2.40;;
7773;SDS011;3931;42.260;23.116;2023-11-19T01:50:53;2.20;;;1.87;;
7773;SDS011;3931;42.260;23.116;2023-11-19T01:53:19;3.43;;;1.77;;
7773;SDS011;3931;42.260;23.116;2023-11-19T01:55:46;2.37;;;2.13;;
7773;SDS011;3931;42.260;23.116;2023-11-19T01:58:13;2.17;;;1.77;;
7773;SDS011;3931;42.260;23.116;2023-11-19T02:00:39;2.27;;;2.07;;
7773;SDS011;3931;42.260;23.116;2023-11-19T02:03:06;1.97;;;1.73;;
7773;SDS011;3931;42.260;23.116;2023-11-19T02:05:33;3.87;;;2.47;;
7773;SDS011;3931;42.260;23.116;2023-11-19T02:08:00;3.67;;;2.00;;
7773;SDS011;3931;42.260;23.116;2023-11-19T02:10:26;2.67;;;2.20;;
7773;SDS011;3931;42.260;23.116;2023-11-19T02:12:53;2.50;;;2.00;;
7773;SDS011;3931;42.260;23.116;2023-11-19T02:15:20;2.83;;;2.03;;
7773;SDS011;3931;42.260;23.116;2023-11-19T02:17:49;2.90;;;2.10;;
7773;SDS011;3931;42.260;23.116;2023-11-19T02:20:15;2.77;;;2.13;;
7773;SDS011;3931;42.260;23.116;2023-11-19T02:22:41;2.60;;;1.93;;
7773;SDS011;3931;42.260;23.116;2023-11-19T02:25:11;3.23;;;2.37;;
7773;SDS011;3931;42.260;23.116;2023-11-19T02:27:55;1.80;;;1.67;;
7773;SDS011;3931;42.260;23.116;2023-11-19T02:30:25;2.33;;;1.80;;
7773;SDS011;3931;42.260;23.116;2023-11-19T02:32:52;2.97;;;1.90;;
7773;SDS011;3931;42.260;23.116;2023-11-19T02:35:18;3.57;;;2.67;;
7773;SDS011;3931;42.260;23.116;2023-11-19T02:37:44;6.43;;;3.00;;
7773;SDS011;3931;42.260;23.116;2023-11-19T02:40:10;3.00;;;2.47;;
7773;SDS011;3931;42.260;23.116;2023-11-19T02:42:38;2.03;;;1.73;;
7773;SDS011;3931;42.260;23.116;2023-11-19T02:45:05;3.80;;;2.60;;
7773;SDS011;3931;42.260;23.116;2023-11-19T02:47:32;3.00;;;1.80;;
7773;SDS011;3931;42.260;23.116;2023-11-19T02:49:59;2.40;;;1.80;;
7773;SDS011;3931;42.260;23.116;2023-11-19T02:52:25;6.93;;;2.73;;
7773;SDS011;3931;42.260;23.116;2023-11-19T02:54:51;2.67;;;1.80;;
7773;SDS011;3931;42.260;23.116;2023-11-19T02:57:17;4.20;;;2.30;;
7773;SDS011;3931;42.260;23.116;2023-11-19T02:59:46;4.27;;;2.30;;
7773;SDS011;3931;42.260;23.116;2023-11-19T03:02:12;2.40;;;1.90;;
7773;SDS011;3931;42.260;23.116;2023-11-19T03:04:41;3.00;;;2.07;;
7773;SDS011;3931;42.260;23.116;2023-11-19T03:07:10;3.57;;;2.20;;
7773;SDS011;3931;42.260;23.116;2023-11-19T03:09:37;2.70;;;1.73;;
7773;SDS011;3931;42.260;23.116;2023-11-19T03:12:05;3.53;;;2.27;;
7773;SDS011;3931;42.260;23.116;2023-11-19T03:14:33;6.57;;;2.13;;
7773;SDS011;3931;42.260;23.116;2023-11-19T03:16:59;2.83;;;1.40;;
7773;SDS011;3931;42.260;23.116;2023-11-19T03:19:26;2.30;;;1.93;;
7773;SDS011;3931;42.260;23.116;2023-11-19T03:21:52;13.63;;;2.13;;
7773;SDS011;3931;42.260;23.116;2023-11-19T03:24:19;2.77;;;1.90;;
7773;SDS011;3931;42.260;23.116;2023-11-19T03:26:47;2.30;;;1.80;;
7773;SDS011;3931;42.260;23.116;2023-11-19T03:29:15;4.50;;;1.97;;
7773;SDS011;3931;42.260;23.116;2023-11-19T03:31:41;2.37;;;1.80;;
7773;SDS011;3931;42.260;23.116;2023-11-19T03:34:07;2.33;;;1.73;;
7773;SDS011;3931;42.260;23.116;2023-11-19T03:36:34;2.40;;;1.90;;
7773;SDS011;3931;42.260;23.116;2023-11-19T03:39:00;3.20;;;2.00;;
7773;SDS011;3931;42.260;23.116;2023-11-19T03:41:28;2.80;;;2.13;;
7773;SDS011;3931;42.260;23.116;2023-11-19T03:43:54;3.20;;;1.83;;
7773;SDS011;3931;42.260;23.116;2023-11-19T03:46:20;3.73;;;1.70;;
7773;SDS011;3931;42.260;23.116;2023-11-19T03:48:47;6.93;;;2.90;;
7773;SDS011;3931;42.260;23.116;2023-11-19T03:51:13;8.20;;;4.90;;
7773;SDS011;3931;42.260;23.116;2023-11-19T03:53:41;3.70;;;2.70;;
7773;SDS011;3931;42.260;23.116;2023-11-19T03:56:08;2.90;;;2.10;;
7773;SDS011;3931;42.260;23.116;2023-11-19T03:58:34;2.40;;;2.20;;
7773;SDS011;3931;42.260;23.116;2023-11-19T04:01:01;4.60;;;2.83;;
7773;SDS011;3931;42.260;23.116;2023-11-19T04:03:27;2.67;;;2.10;;
7773;SDS011;3931;42.260;23.116;2023-11-19T04:05:53;2.83;;;2.20;;
7773;SDS011;3931;42.260;23.116;2023-11-19T04:08:19;3.37;;;2.40;;
7773;SDS011;3931;42.260;23.116;2023-11-19T04:10:46;2.73;;;2.10;;
7773;SDS011;3931;42.260;23.116;2023-11-19T04:13:12;2.93;;;1.90;;
7773;SDS011;3931;42.260;23.116;2023-11-19T04:15:38;3.40;;;2.10;;
7773;SDS011;3931;42.260;23.116;2023-11-19T04:18:05;3.70;;;1.97;;
7773;SDS011;3931;42.260;23.116;2023-11-19T04:20:31;3.07;;;1.90;;
7773;SDS011;3931;42.260;23.116;2023-11-19T04:22:57;3.27;;;2.23;;
7773;SDS011;3931;42.260;23.116;2023-11-19T04:25:25;3.37;;;2.40;;
7773;SDS011;3931;42.260;23.116;2023-11-19T04:27:52;5.47;;;3.20;;
7773;SDS011;3931;42.260;23.116;2023-11-19T04:30:18;3.20;;;2.27;;
7773;SDS011;3931;42.260;23.116;2023-11-19T04:32:44;5.87;;;2.30;;
7773;SDS011;3931;42.260;23.116;2023-11-19T04:35:10;3.87;;;2.23;;
7773;SDS011;3931;42.260;23.116;2023-11-19T04:37:36;5.40;;;2.83;;
7773;SDS011;3931;42.260;23.116;2023-11-19T04:40:03;3.57;;;2.80;;
7773;SDS011;3931;42.260;23.116;2023-11-19T04:42:29;3.43;;;2.50;;
7773;SDS011;3931;42.260;23.116;2023-11-19T04:44:56;3.03;;;2.30;;
7773;SDS011;3931;42.260;23.116;2023-11-19T04:47:22;3.27;;;2.30;;
7773;SDS011;3931;42.260;23.116;2023-11-19T04:49:48;4.97;;;2.33;;
7773;SDS011;3931;42.260;23.116;2023-11-19T04:52:14;3.33;;;2.17;;
7773;SDS011;3931;42.260;23.116;2023-11-19T04:54:40;16.60;;;5.67;;
7773;SDS011;3931;42.260;23.116;2023-11-19T04:57:07;2.87;;;1.83;;
7773;SDS011;3931;42.260;23.116;2023-11-19T04:59:35;3.07;;;2.30;;
7773;SDS011;3931;42.260;23.116;2023-11-19T05:02:02;3.83;;;2.60;;
7773;SDS011;3931;42.260;23.116;2023-11-19T05:04:29;2.93;;;2.23;;
7773;SDS011;3931;42.260;23.116;2023-11-19T05:06:55;6.13;;;3.70;;
7773;SDS011;3931;42.260;23.116;2023-11-19T05:09:21;6.80;;;3.17;;
7773;SDS011;3931;42.260;23.116;2023-11-19T05:11:47;6.53;;;3.90;;
7773;SDS011;3931;42.260;23.116;2023-11-19T05:14:13;4.80;;;2.90;;
7773;SDS011;3931;42.260;23.116;2023-11-19T05:16:40;9.90;;;4.37;;
7773;SDS011;3931;42.260;23.116;2023-11-19T05:19:08;3.30;;;2.33;;
7773;SDS011;3931;42.260;23.116;2023-11-19T05:21:34;5.10;;;2.73;;
7773;SDS011;3931;42.260;23.116;2023-11-19T05:24:01;3.70;;;2.67;;
7773;SDS011;3931;42.260;23.116;2023-11-19T05:26:29;7.90;;;3.97;;
7773;SDS011;3931;42.260;23.116;2023-11-19T05:28:55;15.83;;;5.23;;
7773;SDS011;3931;42.260;23.116;2023-11-19T05:31:21;16.10;;;4.33;;
7773;SDS011;3931;42.260;23.116;2023-11-19T05:33:47;3.97;;;2.57;;
7773;SDS011;3931;42.260;23.116;2023-11-19T05:36:14;3.97;;;2.80;;
7773;SDS011;3931;42.260;23.116;2023-11-19T05:38:41;11.70;;;3.93;;
7773;SDS011;3931;42.260;23.116;2023-11-19T05:41:07;6.03;;;3.40;;
7773;SDS011;3931;42.260;23.116;2023-11-19T05:43:33;8.60;;;3.83;;
7773;SDS011;3931;42.260;23.116;2023-11-19T05:45:59;4.30;;;2.90;;
7773;SDS011;3931;42.260;23.116;2023-11-19T05:48:26;6.27;;;3.53;;
7773;SDS011;3931;42.260;23.116;2023-11-19T05:50:53;11.13;;;3.80;;
7773;SDS011;3931;42.260;23.116;2023-11-19T05:53:20;7.83;;;4.47;;
7773;SDS011;3931;42.260;23.116;2023-11-19T05:55:47;4.23;;;3.00;;
7773;SDS011;3931;42.260;23.116;2023-11-19T05:58:19;12.00;;;4.17;;
7773;SDS011;3931;42.260;23.116;2023-11-19T06:00:47;7.33;;;4.70;;
7773;SDS011;3931;42.260;23.116;2023-11-19T06:03:16;7.67;;;4.60;;
7773;SDS011;3931;42.260;23.116;2023-11-19T06:05:44;5.53;;;3.83;;
7773;SDS011;3931;42.260;23.116;2023-11-19T06:08:10;6.27;;;3.70;;
7773;SDS011;3931;42.260;23.116;2023-11-19T06:10:38;5.53;;;2.90;;
7773;SDS011;3931;42.260;23.116;2023-11-19T06:13:04;5.80;;;3.80;;
7773;SDS011;3931;42.260;23.116;2023-11-19T06:15:30;3.83;;;2.93;;
7773;SDS011;3931;42.260;23.116;2023-11-19T06:17:58;5.43;;;3.73;;
7773;SDS011;3931;42.260;23.116;2023-11-19T06:20:26;5.03;;;3.50;;
7773;SDS011;3931;42.260;23.116;2023-11-19T06:22:54;6.27;;;3.63;;
7773;SDS011;3931;42.260;23.116;2023-11-19T06:25:20;5.23;;;3.00;;
7773;SDS011;3931;42.260;23.116;2023-11-19T06:27:46;6.97;;;3.90;;
7773;SDS011;3931;42.260;23.116;2023-11-19T06:30:13;6.97;;;4.00;;
7773;SDS011;3931;42.260;23.116;2023-11-19T06:32:39;3.60;;;3.10;;
7773;SDS011;3931;42.260;23.116;2023-11-19T06:35:05;6.17;;;3.87;;
7773;SDS011;3931;42.260;23.116;2023-11-19T06:37:32;11.23;;;5.40;;
7773;SDS011;3931;42.260;23.116;2023-11-19T06:39:58;8.87;;;4.80;;
7773;SDS011;3931;42.260;23.116;2023-11-19T06:42:24;9.53;;;5.70;;
7773;SDS011;3931;42.260;23.116;2023-11-19T06:44:51;9.27;;;5.87;;
7773;SDS011;3931;42.260;23.116;2023-11-19T06:47:17;11.93;;;4.10;;
7773;SDS011;3931;42.260;23.116;2023-11-19T06:49:43;7.23;;;5.03;;
7773;SDS011;3931;42.260;23.116;2023-11-19T06:52:10;7.77;;;5.40;;
7773;SDS011;3931;42.260;23.116;2023-11-19T06:54:36;5.17;;;3.20;;
7773;SDS011;3931;42.260;23.116;2023-11-19T06:57:03;8.47;;;5.10;;
7773;SDS011;3931;42.260;23.116;2023-11-19T06:59:30;6.43;;;4.20;;
7773;SDS011;3931;42.260;23.116;2023-11-19T07:01:56;11.90;;;5.90;;
7773;SDS011;3931;42.260;23.116;2023-11-19T07:04:22;11.67;;;5.80;;
7773;SDS011;3931;42.260;23.116;2023-11-19T07:06:48;7.80;;;5.00;;
7773;SDS011;3931;42.260;23.116;2023-11-19T07:09:14;13.03;;;6.10;;
7773;SDS011;3931;42.260;23.116;2023-11-19T07:11:41;7.97;;;4.10;;
7773;SDS011;3931;42.260;23.116;2023-11-19T07:14:09;4.20;;;3.27;;
7773;SDS011;3931;42.260;23.116;2023-11-19T07:16:36;4.97;;;3.40;;
7773;SDS011;3931;42.260;23.116;2023-11-19T07:19:04;4.07;;;2.90;;
7773;SDS011;3931;42.260;23.116;2023-11-19T07:21:30;5.50;;;2.90;;
7773;SDS011;3931;42.260;23.116;2023-11-19T07:23:58;8.07;;;3.67;;
7773;SDS011;3931;42.260;23.116;2023-11-19T07:26:24;6.20;;;3.60;;
7773;SDS011;3931;42.260;23.116;2023-11-19T07:28:50;7.20;;;3.00;;
7773;SDS011;3931;42.260;23.116;2023-11-19T07:31:17;5.50;;;2.97;;
7773;SDS011;3931;42.260;23.116;2023-11-19T07:33:44;5.80;;;3.80;;
7773;SDS011;3931;42.260;23.116;2023-11-19T07:36:11;4.70;;;3.00;;
7773;SDS011;3931;42.260;23.116;2023-11-19T07:38:37;5.53;;;4.00;;
7773;SDS011;3931;42.260;23.116;2023-11-19T07:41:04;18.20;;;8.40;;
7773;SDS011;3931;42.260;23.116;2023-11-19T07:43:30;6.20;;;3.70;;
7773;SDS011;3931;42.260;23.116;2023-11-19T07:45:57;8.30;;;4.17;;
7773;SDS011;3931;42.260;23.116;2023-11-19T07:48:24;3.33;;;2.00;;
7773;SDS011;3931;42.260;23.116;2023-11-19T07:50:51;6.60;;;3.20;;
7773;SDS011;3931;42.260;23.116;2023-11-19T07:53:18;8.20;;;3.20;;
7773;SDS011;3931;42.260;23.116;2023-11-19T07:55:45;5.90;;;3.80;;
7773;SDS011;3931;42.260;23.116;2023-11-19T07:58:11;6.50;;;3.37;;
7773;SDS011;3931;42.260;23.116;2023-11-19T08:00:37;6.10;;;3.80;;
7773;SDS011;3931;42.260;23.116;2023-11-19T08:03:04;8.57;;;5.20;;
7773;SDS011;3931;42.260;23.116;2023-11-19T08:05:30;5.40;;;3.33;;
7773;SDS011;3931;42.260;23.116;2023-11-19T08:07:57;7.00;;;4.30;;
7773;SDS011;3931;42.260;23.116;2023-11-19T08:10:24;9.73;;;3.57;;
7773;SDS011;3931;42.260;23.116;2023-11-19T08:12:50;5.40;;;3.40;;
7773;SDS011;3931;42.260;23.116;2023-11-19T08:15:16;6.03;;;3.77;;
7773;SDS011;3931;42.260;23.116;2023-11-19T08:17:42;6.40;;;3.90;;
7773;SDS011;3931;42.260;23.116;2023-11-19T08:20:09;18.03;;;9.47;;
7773;SDS011;3931;42.260;23.116;2023-11-19T08:22:35;5.53;;;3.87;;
7773;SDS011;3931;42.260;23.116;2023-11-19T08:25:01;9.20;;;5.27;;
7773;SDS011;3931;42.260;23.116;2023-11-19T08:27:28;9.40;;;4.90;;
7773;SDS011;3931;42.260;23.116;2023-11-19T08:29:54;4.77;;;3.30;;
7773;SDS011;3931;42.260;23.116;2023-11-19T08:32:21;7.97;;;5.10;;
7773;SDS011;3931;42.260;23.116;2023-11-19T08:34:47;6.67;;;4.53;;
7773;SDS011;3931;42.260;23.116;2023-11-19T08:37:13;9.10;;;3.60;;
7773;SDS011;3931;42.260;23.116;2023-11-19T08:39:40;6.23;;;3.97;;
7773;SDS011;3931;42.260;23.116;2023-11-19T08:42:07;7.37;;;5.67;;
7773;SDS011;3931;42.260;23.116;2023-11-19T08:44:33;8.00;;;4.80;;
7773;SDS011;3931;42.260;23.116;2023-11-19T08:46:59;5.90;;;3.80;;
7773;SDS011;3931;42.260;23.116;2023-11-19T08:49:26;8.87;;;5.13;;
7773;SDS011;3931;42.260;23.116;2023-11-19T08:51:52;5.80;;;3.70;;
7773;SDS011;3931;42.260;23.116;2023-11-19T08:54:18;20.00;;;4.77;;
7773;SDS011;3931;42.260;23.116;2023-11-19T08:56:45;6.20;;;4.03;;
7773;SDS011;3931;42.260;23.116;2023-11-19T08:59:11;5.80;;;3.70;;
7773;SDS011;3931;42.260;23.116;2023-11-19T09:01:38;37.67;;;15.60;;
7773;SDS011;3931;42.260;23.116;2023-11-19T09:04:04;11.37;;;6.50;;
7773;SDS011;3931;42.260;23.116;2023-11-19T09:06:30;19.30;;;7.77;;
7773;SDS011;3931;42.260;23.116;2023-11-19T09:08:56;8.40;;;5.60;;
7773;SDS011;3931;42.260;23.116;2023-11-19T09:11:26;14.33;;;6.43;;
7773;SDS011;3931;42.260;23.116;2023-11-19T09:13:52;10.23;;;5.57;;
7773;SDS011;3931;42.260;23.116;2023-11-19T09:16:18;8.10;;;4.40;;
7773;SDS011;3931;42.260;23.116;2023-11-19T09:18:45;6.60;;;4.33;;
7773;SDS011;3931;42.260;23.116;2023-11-19T09:21:11;11.07;;;5.17;;
7773;SDS011;3931;42.260;23.116;2023-11-19T09:23:37;17.90;;;7.17;;
7773;SDS011;3931;42.260;23.116;2023-11-19T09:26:04;24.07;;;8.73;;
7773;SDS011;3931;42.260;23.116;2023-11-19T09:28:30;11.50;;;5.80;;
7773;SDS011;3931;42.260;23.116;2023-11-19T09:30:56;5.20;;;3.27;;
7773;SDS011;3931;42.260;23.116;2023-11-19T09:33:22;6.00;;;3.97;;
7773;SDS011;3931;42.260;23.116;2023-11-19T09:35:49;4.23;;;3.50;;
7773;SDS011;3931;42.260;23.116;2023-11-19T09:38:16;4.90;;;3.67;;
7773;SDS011;3931;42.260;23.116;2023-11-19T09:40:42;16.47;;;6.30;;
7773;SDS011;3931;42.260;23.116;2023-11-19T09:43:08;3.53;;;3.20;;
7773;SDS011;3931;42.260;23.116;2023-11-19T09:45:45;5.60;;;4.20;;
7773;SDS011;3931;42.260;23.116;2023-11-19T09:48:15;5.27;;;4.00;;
7773;SDS011;3931;42.260;23.116;2023-11-19T09:50:42;8.03;;;5.13;;
7773;SDS011;3931;42.260;23.116;2023-11-19T09:53:10;4.07;;;2.80;;
7773;SDS011;3931;42.260;23.116;2023-11-19T09:55:36;13.33;;;6.20;;
7773;SDS011;3931;42.260;23.116;2023-11-19T09:58:02;5.73;;;3.23;;
7773;SDS011;3931;42.260;23.116;2023-11-19T10:00:28;5.00;;;3.30;;
7773;SDS011;3931;42.260;23.116;2023-11-19T10:02:56;5.30;;;3.43;;
7773;SDS011;3931;42.260;23.116;2023-11-19T10:05:22;7.43;;;4.23;;
7773;SDS011;3931;42.260;23.116;2023-11-19T10:07:49;7.90;;;5.30;;
7773;SDS011;3931;42.260;23.116;2023-11-19T10:10:16;6.90;;;4.40;;
7773;SDS011;3931;42.260;23.116;2023-11-19T10:12:44;6.63;;;3.40;;
7773;SDS011;3931;42.260;23.116;2023-11-19T10:15:14;13.17;;;4.60;;
7773;SDS011;3931;42.260;23.116;2023-11-19T10:17:46;7.80;;;5.10;;
7773;SDS011;3931;42.260;23.116;2023-11-19T10:20:12;8.23;;;5.60;;
7773;SDS011;3931;42.260;23.116;2023-11-19T10:22:38;4.87;;;3.57;;
7773;SDS011;3931;42.260;23.116;2023-11-19T10:25:04;7.17;;;3.67;;
7773;SDS011;3931;42.260;23.116;2023-11-19T10:27:34;5.73;;;3.87;;
7773;SDS011;3931;42.260;23.116;2023-11-19T10:30:00;5.03;;;3.87;;
7773;SDS011;3931;42.260;23.116;2023-11-19T10:32:26;3.70;;;2.30;;
7773;SDS011;3931;42.260;23.116;2023-11-19T10:34:52;6.47;;;5.57;;
7773;SDS011;3931;42.260;23.116;2023-11-19T10:37:30;3.90;;;2.80;;
7773;SDS011;3931;42.260;23.116;2023-11-19T10:39:57;6.77;;;3.40;;
7773;SDS011;3931;42.260;23.116;2023-11-19T10:42:23;4.90;;;3.73;;
7773;SDS011;3931;42.260;23.116;2023-11-19T10:44:50;12.43;;;7.90;;
7773;SDS011;3931;42.260;23.116;2023-11-19T10:47:17;4.83;;;3.40;;
7773;SDS011;3931;42.260;23.116;2023-11-19T10:49:44;3.60;;;2.73;;
7773;SDS011;3931;42.260;23.116;2023-11-19T10:52:11;5.00;;;2.83;;
7773;SDS011;3931;42.260;23.116;2023-11-19T10:54:42;5.43;;;3.33;;
7773;SDS011;3931;42.260;23.116;2023-11-19T10:57:10;4.43;;;2.73;;
7773;SDS011;3931;42.260;23.116;2023-11-19T10:59:42;3.83;;;2.97;;
7773;SDS011;3931;42.260;23.116;2023-11-19T11:02:11;3.70;;;2.30;;
7773;SDS011;3931;42.260;23.116;2023-11-19T11:04:44;4.90;;;3.23;;
7773;SDS011;3931;42.260;23.116;2023-11-19T11:07:13;2.90;;;2.13;;
7773;SDS011;3931;42.260;23.116;2023-11-19T11:09:41;4.00;;;2.87;;
7773;SDS011;3931;42.260;23.116;2023-11-19T11:12:08;7.63;;;6.20;;
7773;SDS011;3931;42.260;23.116;2023-11-19T11:14:35;3.50;;;2.10;;
7773;SDS011;3931;42.260;23.116;2023-11-19T11:17:05;3.80;;;2.77;;
7773;SDS011;3931;42.260;23.116;2023-11-19T11:19:34;4.30;;;2.97;;
7773;SDS011;3931;42.260;23.116;2023-11-19T11:22:01;8.10;;;3.53;;
7773;SDS011;3931;42.260;23.116;2023-11-19T11:24:33;6.13;;;4.13;;
7773;SDS011;3931;42.260;23.116;2023-11-19T11:27:21;3.93;;;2.63;;
7773;SDS011;3931;42.260;23.116;2023-11-19T11:30:07;4.33;;;2.97;;
7773;SDS011;3931;42.260;23.116;2023-11-19T11:32:43;8.70;;;6.20;;
7773;SDS011;3931;42.260;23.116;2023-11-19T11:35:24;7.93;;;5.60;;
7773;SDS011;3931;42.260;23.116;2023-11-19T11:38:00;6.40;;;4.10;;
7773;SDS011;3931;42.260;23.116;2023-11-19T11:40:30;6.87;;;3.90;;
7773;SDS011;3931;42.260;23.116;2023-11-19T11:42:56;15.73;;;4.03;;
7773;SDS011;3931;42.260;23.116;2023-11-19T11:45:34;5.00;;;2.77;;
7773;SDS011;3931;42.260;23.116;2023-11-19T11:48:08;4.63;;;3.53;;
7773;SDS011;3931;42.260;23.116;2023-11-19T11:50:46;6.67;;;4.70;;
7773;SDS011;3931;42.260;23.116;2023-11-19T11:53:17;5.23;;;2.60;;
7773;SDS011;3931;42.260;23.116;2023-11-19T11:55:56;3.90;;;2.60;;
7773;SDS011;3931;42.260;23.116;2023-11-19T11:58:29;7.30;;;4.17;;
7773;SDS011;3931;42.260;23.116;2023-11-19T12:01:00;3.37;;;2.40;;
7773;SDS011;3931;42.260;23.116;2023-11-19T12:03:28;4.47;;;2.93;;
7773;SDS011;3931;42.260;23.116;2023-11-19T12:05:56;16.60;;;6.00;;
7773;SDS011;3931;42.260;23.116;2023-11-19T12:08:24;8.70;;;5.50;;
7773;SDS011;3931;42.260;23.116;2023-11-19T12:10:52;13.10;;;5.90;;
7773;SDS011;3931;42.260;23.116;2023-11-19T12:13:19;4.93;;;2.93;;
7773;SDS011;3931;42.260;23.116;2023-11-19T12:18:35;6.90;;;4.07;;
7773;SDS011;3931;42.260;23.116;2023-11-19T12:21:05;4.87;;;3.80;;
7773;SDS011;3931;42.260;23.116;2023-11-19T12:23:34;14.03;;;8.30;;
7773;SDS011;3931;42.260;23.116;2023-11-19T12:26:00;25.53;;;15.50;;
7773;SDS011;3931;42.260;23.116;2023-11-19T12:28:26;8.23;;;5.00;;
7773;SDS011;3931;42.260;23.116;2023-11-19T12:30:53;8.33;;;4.43;;
7773;SDS011;3931;42.260;23.116;2023-11-19T12:33:19;7.00;;;4.20;;
7773;SDS011;3931;42.260;23.116;2023-11-19T12:35:46;6.40;;;3.57;;
7773;SDS011;3931;42.260;23.116;2023-11-19T12:38:18;11.23;;;7.40;;
7773;SDS011;3931;42.260;23.116;2023-11-19T12:40:45;6.97;;;4.17;;
7773;SDS011;3931;42.260;23.116;2023-11-19T12:43:11;7.63;;;4.63;;
7773;SDS011;3931;42.260;23.116;2023-11-19T12:45:47;5.90;;;3.83;;
7773;SDS011;3931;42.260;23.116;2023-11-19T12:48:13;4.60;;;3.00;;
7773;SDS011;3931;42.260;23.116;2023-11-19T12:50:49;4.80;;;2.67;;
7773;SDS011;3931;42.260;23.116;2023-11-19T12:53:16;6.20;;;4.00;;
7773;SDS011;3931;42.260;23.116;2023-11-19T12:55:42;4.70;;;2.87;;
7773;SDS011;3931;42.260;23.116;2023-11-19T12:58:08;4.10;;;2.50;;
7773;SDS011;3931;42.260;23.116;2023-11-19T13:00:34;4.80;;;3.03;;
7773;SDS011;3931;42.260;23.116;2023-11-19T13:03:00;3.60;;;2.27;;
7773;SDS011;3931;42.260;23.116;2023-11-19T13:05:27;7.00;;;3.10;;
7773;SDS011;3931;42.260;23.116;2023-11-19T13:08:02;4.93;;;2.70;;
7773;SDS011;3931;42.260;23.116;2023-11-19T13:10:30;4.47;;;2.83;;
7773;SDS011;3931;42.260;23.116;2023-11-19T13:13:01;5.43;;;3.37;;
7773;SDS011;3931;42.260;23.116;2023-11-19T13:15:29;5.37;;;3.80;;
7773;SDS011;3931;42.260;23.116;2023-11-19T13:17:55;3.50;;;2.70;;
7773;SDS011;3931;42.260;23.116;2023-11-19T13:20:21;10.13;;;3.30;;
7773;SDS011;3931;42.260;23.116;2023-11-19T13:22:57;3.90;;;2.53;;
7773;SDS011;3931;42.260;23.116;2023-11-19T13:25:23;12.73;;;6.50;;
7773;SDS011;3931;42.260;23.116;2023-11-19T13:27:49;10.87;;;5.70;;
7773;SDS011;3931;42.260;23.116;2023-11-19T13:30:16;11.33;;;5.70;;
7773;SDS011;3931;42.260;23.116;2023-11-19T13:32:42;7.37;;;3.70;;
7773;SDS011;3931;42.260;23.116;2023-11-19T13:35:09;3.50;;;2.47;;
7773;SDS011;3931;42.260;23.116;2023-11-19T13:37:35;11.27;;;4.90;;
7773;SDS011;3931;42.260;23.116;2023-11-19T13:40:01;3.57;;;2.23;;
7773;SDS011;3931;42.260;23.116;2023-11-19T13:42:28;7.00;;;2.63;;
7773;SDS011;3931;42.260;23.116;2023-11-19T13:44:54;10.10;;;4.57;;
7773;SDS011;3931;42.260;23.116;2023-11-19T13:47:22;4.93;;;3.73;;
7773;SDS011;3931;42.260;23.116;2023-11-19T13:49:48;5.90;;;3.70;;
7773;SDS011;3931;42.260;23.116;2023-11-19T13:52:15;8.60;;;5.90;;
7773;SDS011;3931;42.260;23.116;2023-11-19T13:54:41;6.20;;;3.90;;
7773;SDS011;3931;42.260;23.116;2023-11-19T13:57:07;4.73;;;2.80;;
7773;SDS011;3931;42.260;23.116;2023-11-19T13:59:33;3.63;;;2.70;;
7773;SDS011;3931;42.260;23.116;2023-11-19T14:01:59;5.43;;;3.20;;
7773;SDS011;3931;42.260;23.116;2023-11-19T14:04:25;5.97;;;4.57;;
7773;SDS011;3931;42.260;23.116;2023-11-19T14:06:51;16.70;;;8.40;;
7773;SDS011;3931;42.260;23.116;2023-11-19T14:09:20;25.73;;;13.20;;
7773;SDS011;3931;42.260;23.116;2023-11-19T14:11:46;9.50;;;5.70;;
7773;SDS011;3931;42.260;23.116;2023-11-19T14:14:13;17.43;;;5.63;;
7773;SDS011;3931;42.260;23.116;2023-11-19T14:16:39;10.30;;;6.30;;
7773;SDS011;3931;42.260;23.116;2023-11-19T14:19:05;14.17;;;8.13;;
7773;SDS011;3931;42.260;23.116;2023-11-19T14:21:32;20.60;;;10.20;;
7773;SDS011;3931;42.260;23.116;2023-11-19T14:23:58;24.53;;;11.77;;
7773;SDS011;3931;42.260;23.116;2023-11-19T14:26:24;22.10;;;11.80;;
7773;SDS011;3931;42.260;23.116;2023-11-19T14:28:50;11.40;;;6.40;;
7773;SDS011;3931;42.260;23.116;2023-11-19T14:31:16;16.97;;;8.00;;
7773;SDS011;3931;42.260;23.116;2023-11-19T14:33:42;14.90;;;8.80;;
7773;SDS011;3931;42.260;23.116;2023-11-19T14:36:08;10.60;;;5.37;;
7773;SDS011;3931;42.260;23.116;2023-11-19T14:38:35;19.83;;;8.10;;
7773;SDS011;3931;42.260;23.116;2023-11-19T14:41:01;22.20;;;8.00;;
7773;SDS011;3931;42.260;23.116;2023-11-19T14:43:27;12.90;;;6.23;;
7773;SDS011;3931;42.260;23.116;2023-11-19T14:45:53;8.87;;;3.80;;
7773;SDS011;3931;42.260;23.116;2023-11-19T14:48:19;8.73;;;4.90;;
7773;SDS011;3931;42.260;23.116;2023-11-19T14:50:46;15.03;;;6.57;;
7773;SDS011;3931;42.260;23.116;2023-11-19T14:53:12;16.27;;;7.63;;
7773;SDS011;3931;42.260;23.116;2023-11-19T14:55:38;22.53;;;9.70;;
7773;SDS011;3931;42.260;23.116;2023-11-19T14:58:04;19.97;;;11.47;;
7773;SDS011;3931;42.260;23.116;2023-11-19T15:00:31;26.87;;;13.27;;